sensor_id;sensor_type;location;lat;lon;timestamp;P1;durP1;ratioP1;P2;durP2;ratioP2
51981;SDS011;37998;53.416;6.730;2022-12-07T00:02:15;5.10;;;1.40;;
51981;SDS011;37998;53.416;6.730;2022-12-07T00:04:41;7.03;;;1.80;;
51981;SDS011;37998;53.416;6.730;2022-12-07T00:07:07;12.70;;;1.77;;
51981;SDS011;37998;53.416;6.730;2022-12-07T00:09:32;8.30;;;2.10;;
51981;SDS011;37998;53.416;6.730;2022-12-07T00:11:58;13.68;;;2.25;;
51981;SDS011;37998;53.416;6.730;2022-12-07T00:14:23;5.82;;;1.90;;
51981;SDS011;37998;53.416;6.730;2022-12-07T00:16:50;10.68;;;2.00;;
51981;SDS011;37998;53.416;6.730;2022-12-07T00:19:17;10.75;;;2.72;;
51981;SDS011;37998;53.416;6.730;2022-12-07T00:21:42;14.95;;;2.40;;
51981;SDS011;37998;53.416;6.730;2022-12-07T00:24:09;12.75;;;2.67;;
51981;SDS011;37998;53.416;6.730;2022-12-07T00:26:37;14.40;;;2.40;;
51981;SDS011;37998;53.416;6.730;2022-12-07T00:29:05;8.05;;;2.70;;
51981;SDS011;37998;53.416;6.730;2022-12-07T00:31:38;12.68;;;2.28;;
51981;SDS011;37998;53.416;6.730;2022-12-07T00:34:04;8.77;;;2.85;;
51981;SDS011;37998;53.416;6.730;2022-12-07T00:36:31;3.47;;;1.50;;
51981;SDS011;37998;53.416;6.730;2022-12-07T00:38:57;13.00;;;2.30;;
51981;SDS011;37998;53.416;6.730;2022-12-07T00:41:24;10.00;;;2.15;;
51981;SDS011;37998;53.416;6.730;2022-12-07T00:43:51;7.18;;;1.77;;
51981;SDS011;37998;53.416;6.730;2022-12-07T00:46:17;7.82;;;2.13;;
51981;SDS011;37998;53.416;6.730;2022-12-07T00:48:44;12.73;;;2.35;;
51981;SDS011;37998;53.416;6.730;2022-12-07T00:51:10;9.05;;;2.28;;
51981;SDS011;37998;53.416;6.730;2022-12-07T00:53:37;9.73;;;2.10;;
51981;SDS011;37998;53.416;6.730;2022-12-07T00:58:59;10.98;;;1.80;;
51981;SDS011;37998;53.416;6.730;2022-12-07T01:01:27;4.95;;;1.35;;
51981;SDS011;37998;53.416;6.730;2022-12-07T01:03:55;7.80;;;1.75;;
51981;SDS011;37998;53.416;6.730;2022-12-07T01:06:21;5.90;;;1.58;;
51981;SDS011;37998;53.416;6.730;2022-12-07T01:08:48;6.88;;;1.75;;
51981;SDS011;37998;53.416;6.730;2022-12-07T01:11:14;8.25;;;1.92;;
51981;SDS011;37998;53.416;6.730;2022-12-07T01:13:42;7.38;;;1.20;;
51981;SDS011;37998;53.416;6.730;2022-12-07T01:16:10;7.00;;;1.73;;
51981;SDS011;37998;53.416;6.730;2022-12-07T01:18:38;8.65;;;1.45;;
51981;SDS011;37998;53.416;6.730;2022-12-07T01:23:32;6.53;;;2.35;;
51981;SDS011;37998;53.416;6.730;2022-12-07T01:26:00;9.25;;;2.00;;
51981;SDS011;37998;53.416;6.730;2022-12-07T01:28:28;7.97;;;1.67;;
51981;SDS011;37998;53.416;6.730;2022-12-07T01:30:58;9.43;;;1.77;;
51981;SDS011;37998;53.416;6.730;2022-12-07T01:33:32;8.32;;;1.80;;
51981;SDS011;37998;53.416;6.730;2022-12-07T01:36:03;9.68;;;2.53;;
51981;SDS011;37998;53.416;6.730;2022-12-07T01:38:39;11.75;;;2.33;;
51981;SDS011;37998;53.416;6.730;2022-12-07T01:41:05;7.53;;;1.98;;
51981;SDS011;37998;53.416;6.730;2022-12-07T01:43:31;14.45;;;2.30;;
51981;SDS011;37998;53.416;6.730;2022-12-07T01:45:59;12.23;;;2.30;;
51981;SDS011;37998;53.416;6.730;2022-12-07T01:48:30;12.38;;;2.33;;
51981;SDS011;37998;53.416;6.730;2022-12-07T01:51:00;19.42;;;3.90;;
51981;SDS011;37998;53.416;6.730;2022-12-07T01:53:30;16.17;;;5.00;;
51981;SDS011;37998;53.416;6.730;2022-12-07T01:55:59;14.43;;;2.60;;
51981;SDS011;37998;53.416;6.730;2022-12-07T01:58:25;16.65;;;2.70;;
51981;SDS011;37998;53.416;6.730;2022-12-07T02:00:51;16.85;;;3.65;;
51981;SDS011;37998;53.416;6.730;2022-12-07T02:03:22;23.65;;;2.60;;
51981;SDS011;37998;53.416;6.730;2022-12-07T02:05:56;17.67;;;2.50;;
51981;SDS011;37998;53.416;6.730;2022-12-07T02:08:24;10.57;;;2.35;;
51981;SDS011;37998;53.416;6.730;2022-12-07T02:10:50;14.13;;;2.85;;
51981;SDS011;37998;53.416;6.730;2022-12-07T02:13:16;17.63;;;2.25;;
51981;SDS011;37998;53.416;6.730;2022-12-07T02:24:30;11.38;;;2.55;;
51981;SDS011;37998;53.416;6.730;2022-12-07T02:27:10;9.20;;;2.20;;
51981;SDS011;37998;53.416;6.730;2022-12-07T02:29:47;13.32;;;2.10;;
51981;SDS011;37998;53.416;6.730;2022-12-07T02:35:11;10.70;;;1.60;;
51981;SDS011;37998;53.416;6.730;2022-12-07T02:37:47;10.10;;;1.58;;
51981;SDS011;37998;53.416;6.730;2022-12-07T02:42:53;9.85;;;1.95;;
51981;SDS011;37998;53.416;6.730;2022-12-07T02:45:25;7.75;;;1.60;;
51981;SDS011;37998;53.416;6.730;2022-12-07T02:47:55;8.10;;;1.50;;
51981;SDS011;37998;53.416;6.730;2022-12-07T02:50:23;5.07;;;1.40;;
51981;SDS011;37998;53.416;6.730;2022-12-07T02:52:49;8.55;;;1.52;;
51981;SDS011;37998;53.416;6.730;2022-12-07T02:55:15;3.90;;;1.00;;
51981;SDS011;37998;53.416;6.730;2022-12-07T03:00:14;8.50;;;1.60;;
51981;SDS011;37998;53.416;6.730;2022-12-07T03:11:13;10.85;;;1.77;;
51981;SDS011;37998;53.416;6.730;2022-12-07T03:16:22;10.52;;;1.95;;
51981;SDS011;37998;53.416;6.730;2022-12-07T03:18:54;14.95;;;2.17;;
51981;SDS011;37998;53.416;6.730;2022-12-07T03:21:24;10.18;;;1.75;;
51981;SDS011;37998;53.416;6.730;2022-12-07T03:23:53;6.95;;;1.80;;
51981;SDS011;37998;53.416;6.730;2022-12-07T03:26:23;11.02;;;2.22;;
51981;SDS011;37998;53.416;6.730;2022-12-07T03:28:55;7.78;;;2.10;;
51981;SDS011;37998;53.416;6.730;2022-12-07T03:31:30;9.63;;;2.00;;
51981;SDS011;37998;53.416;6.730;2022-12-07T03:34:10;5.43;;;1.42;;
51981;SDS011;37998;53.416;6.730;2022-12-07T03:37:07;6.53;;;1.13;;
51981;SDS011;37998;53.416;6.730;2022-12-07T03:39:49;5.82;;;1.00;;
51981;SDS011;37998;53.416;6.730;2022-12-07T03:42:30;4.65;;;1.10;;
51981;SDS011;37998;53.416;6.730;2022-12-07T03:44:57;4.03;;;1.20;;
51981;SDS011;37998;53.416;6.730;2022-12-07T03:47:29;2.45;;;0.93;;
51981;SDS011;37998;53.416;6.730;2022-12-07T03:49:58;2.22;;;1.00;;
51981;SDS011;37998;53.416;6.730;2022-12-07T03:52:37;6.00;;;1.30;;
51981;SDS011;37998;53.416;6.730;2022-12-07T03:55:19;8.52;;;1.75;;
51981;SDS011;37998;53.416;6.730;2022-12-07T03:57:55;6.70;;;1.63;;
51981;SDS011;37998;53.416;6.730;2022-12-07T04:00:29;9.40;;;1.65;;
51981;SDS011;37998;53.416;6.730;2022-12-07T04:02:55;7.20;;;1.33;;
51981;SDS011;37998;53.416;6.730;2022-12-07T04:05:21;11.88;;;2.10;;
51981;SDS011;37998;53.416;6.730;2022-12-07T04:07:48;11.43;;;2.05;;
51981;SDS011;37998;53.416;6.730;2022-12-07T04:10:13;10.73;;;1.92;;
51981;SDS011;37998;53.416;6.730;2022-12-07T04:12:39;11.02;;;2.03;;
51981;SDS011;37998;53.416;6.730;2022-12-07T04:15:05;10.90;;;2.03;;
51981;SDS011;37998;53.416;6.730;2022-12-07T04:17:31;5.28;;;1.90;;
51981;SDS011;37998;53.416;6.730;2022-12-07T04:19:57;14.13;;;3.53;;
51981;SDS011;37998;53.416;6.730;2022-12-07T04:22:23;13.65;;;2.25;;
51981;SDS011;37998;53.416;6.730;2022-12-07T04:24:48;13.63;;;1.92;;
51981;SDS011;37998;53.416;6.730;2022-12-07T04:27:14;6.60;;;1.60;;
51981;SDS011;37998;53.416;6.730;2022-12-07T04:29:39;5.60;;;1.60;;
51981;SDS011;37998;53.416;6.730;2022-12-07T04:32:05;7.93;;;1.30;;
51981;SDS011;37998;53.416;6.730;2022-12-07T04:34:31;6.00;;;1.55;;
51981;SDS011;37998;53.416;6.730;2022-12-07T04:36:56;7.25;;;1.42;;
51981;SDS011;37998;53.416;6.730;2022-12-07T04:39:23;5.75;;;1.40;;
51981;SDS011;37998;53.416;6.730;2022-12-07T04:41:51;6.15;;;1.70;;
51981;SDS011;37998;53.416;6.730;2022-12-07T04:44:18;12.00;;;1.92;;
51981;SDS011;37998;53.416;6.730;2022-12-07T04:46:44;9.82;;;1.60;;
51981;SDS011;37998;53.416;6.730;2022-12-07T04:49:11;7.53;;;1.48;;
51981;SDS011;37998;53.416;6.730;2022-12-07T04:51:37;10.73;;;1.73;;
51981;SDS011;37998;53.416;6.730;2022-12-07T04:54:03;8.55;;;1.92;;
51981;SDS011;37998;53.416;6.730;2022-12-07T04:56:29;5.32;;;1.83;;
51981;SDS011;37998;53.416;6.730;2022-12-07T04:58:55;6.38;;;1.33;;
51981;SDS011;37998;53.416;6.730;2022-12-07T05:01:21;5.45;;;2.05;;
51981;SDS011;37998;53.416;6.730;2022-12-07T05:03:47;7.07;;;1.58;;
51981;SDS011;37998;53.416;6.730;2022-12-07T05:06:13;11.90;;;3.83;;
51981;SDS011;37998;53.416;6.730;2022-12-07T05:08:39;10.18;;;1.80;;
51981;SDS011;37998;53.416;6.730;2022-12-07T05:11:05;15.30;;;2.05;;
51981;SDS011;37998;53.416;6.730;2022-12-07T05:13:31;9.30;;;2.00;;
51981;SDS011;37998;53.416;6.730;2022-12-07T05:15:57;7.15;;;1.40;;
51981;SDS011;37998;53.416;6.730;2022-12-07T05:18:23;6.97;;;1.55;;
51981;SDS011;37998;53.416;6.730;2022-12-07T05:20:49;12.27;;;1.58;;
51981;SDS011;37998;53.416;6.730;2022-12-07T05:23:16;8.25;;;1.17;;
51981;SDS011;37998;53.416;6.730;2022-12-07T05:25:42;10.23;;;1.73;;
51981;SDS011;37998;53.416;6.730;2022-12-07T05:28:08;7.80;;;1.70;;
51981;SDS011;37998;53.416;6.730;2022-12-07T05:30:34;7.53;;;1.75;;
51981;SDS011;37998;53.416;6.730;2022-12-07T05:32:59;8.70;;;2.45;;
51981;SDS011;37998;53.416;6.730;2022-12-07T05:35:25;19.80;;;2.78;;
51981;SDS011;37998;53.416;6.730;2022-12-07T05:37:51;13.48;;;2.88;;
51981;SDS011;37998;53.416;6.730;2022-12-07T05:40:16;14.65;;;3.20;;
51981;SDS011;37998;53.416;6.730;2022-12-07T05:42:44;21.13;;;3.20;;
51981;SDS011;37998;53.416;6.730;2022-12-07T05:45:10;17.95;;;3.30;;
51981;SDS011;37998;53.416;6.730;2022-12-07T05:47:36;11.45;;;2.92;;
51981;SDS011;37998;53.416;6.730;2022-12-07T05:50:02;15.48;;;1.92;;
51981;SDS011;37998;53.416;6.730;2022-12-07T05:52:29;13.43;;;2.90;;
51981;SDS011;37998;53.416;6.730;2022-12-07T05:54:54;14.32;;;2.28;;
51981;SDS011;37998;53.416;6.730;2022-12-07T05:57:20;11.70;;;2.90;;
51981;SDS011;37998;53.416;6.730;2022-12-07T05:59:46;18.60;;;3.78;;
51981;SDS011;37998;53.416;6.730;2022-12-07T06:02:12;14.23;;;3.22;;
51981;SDS011;37998;53.416;6.730;2022-12-07T06:04:41;10.68;;;2.75;;
51981;SDS011;37998;53.416;6.730;2022-12-07T06:07:09;18.00;;;3.10;;
51981;SDS011;37998;53.416;6.730;2022-12-07T06:09:36;15.93;;;4.00;;
51981;SDS011;37998;53.416;6.730;2022-12-07T06:12:02;11.32;;;2.22;;
51981;SDS011;37998;53.416;6.730;2022-12-07T06:14:47;14.93;;;2.25;;
51981;SDS011;37998;53.416;6.730;2022-12-07T06:17:13;12.65;;;3.25;;
51981;SDS011;37998;53.416;6.730;2022-12-07T06:19:39;17.00;;;4.10;;
51981;SDS011;37998;53.416;6.730;2022-12-07T06:22:05;10.57;;;2.40;;
51981;SDS011;37998;53.416;6.730;2022-12-07T06:24:31;10.93;;;2.28;;
51981;SDS011;37998;53.416;6.730;2022-12-07T06:26:58;8.73;;;2.38;;
51981;SDS011;37998;53.416;6.730;2022-12-07T06:29:23;11.77;;;2.33;;
51981;SDS011;37998;53.416;6.730;2022-12-07T06:31:49;9.60;;;2.55;;
51981;SDS011;37998;53.416;6.730;2022-12-07T06:34:16;7.53;;;1.98;;
51981;SDS011;37998;53.416;6.730;2022-12-07T06:36:44;20.80;;;3.63;;
51981;SDS011;37998;53.416;6.730;2022-12-07T06:39:10;12.40;;;2.78;;
51981;SDS011;37998;53.416;6.730;2022-12-07T06:41:36;15.23;;;2.45;;
51981;SDS011;37998;53.416;6.730;2022-12-07T06:44:03;11.23;;;2.40;;
51981;SDS011;37998;53.416;6.730;2022-12-07T06:46:32;10.88;;;2.42;;
51981;SDS011;37998;53.416;6.730;2022-12-07T06:48:59;7.55;;;2.28;;
51981;SDS011;37998;53.416;6.730;2022-12-07T06:51:24;15.98;;;2.15;;
51981;SDS011;37998;53.416;6.730;2022-12-07T06:53:50;13.20;;;2.80;;
51981;SDS011;37998;53.416;6.730;2022-12-07T06:56:16;12.27;;;2.97;;
51981;SDS011;37998;53.416;6.730;2022-12-07T06:58:42;12.32;;;2.50;;
51981;SDS011;37998;53.416;6.730;2022-12-07T07:01:08;17.83;;;2.17;;
51981;SDS011;37998;53.416;6.730;2022-12-07T07:03:35;11.80;;;2.30;;
51981;SDS011;37998;53.416;6.730;2022-12-07T07:06:00;15.10;;;2.50;;
51981;SDS011;37998;53.416;6.730;2022-12-07T07:08:26;19.02;;;2.88;;
51981;SDS011;37998;53.416;6.730;2022-12-07T07:10:52;13.48;;;3.33;;
51981;SDS011;37998;53.416;6.730;2022-12-07T07:13:17;9.70;;;2.85;;
51981;SDS011;37998;53.416;6.730;2022-12-07T07:15:43;15.45;;;2.42;;
51981;SDS011;37998;53.416;6.730;2022-12-07T07:18:09;7.45;;;2.20;;
51981;SDS011;37998;53.416;6.730;2022-12-07T07:20:34;12.68;;;2.63;;
51981;SDS011;37998;53.416;6.730;2022-12-07T07:23:00;8.60;;;2.50;;
51981;SDS011;37998;53.416;6.730;2022-12-07T07:25:26;11.00;;;2.10;;
51981;SDS011;37998;53.416;6.730;2022-12-07T07:27:52;11.77;;;2.20;;
51981;SDS011;37998;53.416;6.730;2022-12-07T07:30:17;11.35;;;2.67;;
51981;SDS011;37998;53.416;6.730;2022-12-07T07:32:43;22.08;;;4.90;;
51981;SDS011;37998;53.416;6.730;2022-12-07T07:35:08;19.40;;;2.88;;
51981;SDS011;37998;53.416;6.730;2022-12-07T07:37:37;13.32;;;2.80;;
51981;SDS011;37998;53.416;6.730;2022-12-07T07:40:03;17.40;;;2.78;;
51981;SDS011;37998;53.416;6.730;2022-12-07T07:42:29;9.20;;;2.60;;
51981;SDS011;37998;53.416;6.730;2022-12-07T07:44:54;16.05;;;4.18;;
51981;SDS011;37998;53.416;6.730;2022-12-07T07:47:20;16.58;;;2.38;;
51981;SDS011;37998;53.416;6.730;2022-12-07T07:49:45;8.20;;;2.20;;
51981;SDS011;37998;53.416;6.730;2022-12-07T07:52:11;15.05;;;3.03;;
51981;SDS011;37998;53.416;6.730;2022-12-07T07:54:37;10.05;;;2.25;;
51981;SDS011;37998;53.416;6.730;2022-12-07T07:57:02;11.73;;;2.63;;
51981;SDS011;37998;53.416;6.730;2022-12-07T07:59:28;9.48;;;2.42;;
51981;SDS011;37998;53.416;6.730;2022-12-07T08:01:54;14.15;;;2.63;;
51981;SDS011;37998;53.416;6.730;2022-12-07T08:04:19;12.65;;;2.58;;
51981;SDS011;37998;53.416;6.730;2022-12-07T08:06:45;18.92;;;2.80;;
51981;SDS011;37998;53.416;6.730;2022-12-07T08:09:11;15.30;;;3.63;;
51981;SDS011;37998;53.416;6.730;2022-12-07T08:11:37;18.95;;;2.95;;
51981;SDS011;37998;53.416;6.730;2022-12-07T08:14:02;17.83;;;3.08;;
51981;SDS011;37998;53.416;6.730;2022-12-07T08:16:28;11.73;;;3.00;;
51981;SDS011;37998;53.416;6.730;2022-12-07T08:18:54;11.13;;;2.10;;
51981;SDS011;37998;53.416;6.730;2022-12-07T08:21:20;16.02;;;2.78;;
51981;SDS011;37998;53.416;6.730;2022-12-07T08:23:45;11.13;;;2.05;;
51981;SDS011;37998;53.416;6.730;2022-12-07T08:26:15;13.00;;;2.50;;
51981;SDS011;37998;53.416;6.730;2022-12-07T08:28:41;11.07;;;1.77;;
51981;SDS011;37998;53.416;6.730;2022-12-07T08:31:09;7.38;;;1.73;;
51981;SDS011;37998;53.416;6.730;2022-12-07T08:33:40;7.57;;;2.08;;
51981;SDS011;37998;53.416;6.730;2022-12-07T08:36:10;7.10;;;2.05;;
51981;SDS011;37998;53.416;6.730;2022-12-07T08:38:37;8.48;;;1.83;;
51981;SDS011;37998;53.416;6.730;2022-12-07T08:41:04;12.25;;;2.15;;
51981;SDS011;37998;53.416;6.730;2022-12-07T08:43:31;10.40;;;1.92;;
51981;SDS011;37998;53.416;6.730;2022-12-07T08:48:28;7.82;;;1.42;;
51981;SDS011;37998;53.416;6.730;2022-12-07T08:50:54;7.13;;;1.60;;
51981;SDS011;37998;53.416;6.730;2022-12-07T08:53:20;9.45;;;1.92;;
51981;SDS011;37998;53.416;6.730;2022-12-07T08:55:47;9.20;;;1.83;;
51981;SDS011;37998;53.416;6.730;2022-12-07T08:58:13;8.93;;;2.25;;
51981;SDS011;37998;53.416;6.730;2022-12-07T09:00:39;10.75;;;2.28;;
51981;SDS011;37998;53.416;6.730;2022-12-07T09:03:05;5.47;;;1.60;;
51981;SDS011;37998;53.416;6.730;2022-12-07T09:05:31;10.00;;;1.77;;
51981;SDS011;37998;53.416;6.730;2022-12-07T09:07:59;9.45;;;1.70;;
51981;SDS011;37998;53.416;6.730;2022-12-07T09:10:26;7.93;;;1.73;;
51981;SDS011;37998;53.416;6.730;2022-12-07T09:12:53;13.30;;;2.60;;
51981;SDS011;37998;53.416;6.730;2022-12-07T09:15:18;9.68;;;2.60;;
51981;SDS011;37998;53.416;6.730;2022-12-07T09:17:44;5.03;;;1.48;;
51981;SDS011;37998;53.416;6.730;2022-12-07T09:20:10;14.30;;;2.05;;
51981;SDS011;37998;53.416;6.730;2022-12-07T09:22:36;14.82;;;2.67;;
51981;SDS011;37998;53.416;6.730;2022-12-07T09:25:02;15.38;;;3.00;;
51981;SDS011;37998;53.416;6.730;2022-12-07T09:27:29;10.75;;;2.17;;
51981;SDS011;37998;53.416;6.730;2022-12-07T09:29:55;5.05;;;1.40;;
51981;SDS011;37998;53.416;6.730;2022-12-07T09:32:21;5.28;;;1.30;;
51981;SDS011;37998;53.416;6.730;2022-12-07T09:34:47;5.85;;;1.40;;
51981;SDS011;37998;53.416;6.730;2022-12-07T09:37:12;8.38;;;2.35;;
51981;SDS011;37998;53.416;6.730;2022-12-07T09:39:38;5.75;;;1.92;;
51981;SDS011;37998;53.416;6.730;2022-12-07T09:42:05;9.40;;;1.70;;
51981;SDS011;37998;53.416;6.730;2022-12-07T09:44:32;9.82;;;1.90;;
51981;SDS011;37998;53.416;6.730;2022-12-07T09:46:59;14.27;;;2.25;;
51981;SDS011;37998;53.416;6.730;2022-12-07T09:49:28;8.95;;;2.50;;
51981;SDS011;37998;53.416;6.730;2022-12-07T09:54:34;6.40;;;1.63;;
51981;SDS011;37998;53.416;6.730;2022-12-07T09:57:11;10.77;;;2.10;;
51981;SDS011;37998;53.416;6.730;2022-12-07T09:59:37;9.88;;;2.03;;
51981;SDS011;37998;53.416;6.730;2022-12-07T10:04:54;7.18;;;2.05;;
51981;SDS011;37998;53.416;6.730;2022-12-07T10:07:20;8.20;;;1.80;;
51981;SDS011;37998;53.416;6.730;2022-12-07T10:09:46;6.97;;;2.00;;
51981;SDS011;37998;53.416;6.730;2022-12-07T10:12:12;3.80;;;1.48;;
51981;SDS011;37998;53.416;6.730;2022-12-07T10:14:39;4.30;;;1.00;;
51981;SDS011;37998;53.416;6.730;2022-12-07T10:17:37;3.03;;;1.30;;
51981;SDS011;37998;53.416;6.730;2022-12-07T10:28:00;7.20;;;1.45;;
51981;SDS011;37998;53.416;6.730;2022-12-07T10:30:32;9.68;;;1.70;;
51981;SDS011;37998;53.416;6.730;2022-12-07T10:33:27;6.50;;;1.65;;
51981;SDS011;37998;53.416;6.730;2022-12-07T10:35:54;6.15;;;1.73;;
51981;SDS011;37998;53.416;6.730;2022-12-07T10:38:20;6.80;;;1.52;;
51981;SDS011;37998;53.416;6.730;2022-12-07T10:40:45;10.52;;;2.10;;
51981;SDS011;37998;53.416;6.730;2022-12-07T10:45:54;5.60;;;1.77;;
51981;SDS011;37998;53.416;6.730;2022-12-07T10:48:45;8.27;;;1.77;;
51981;SDS011;37998;53.416;6.730;2022-12-07T10:51:27;6.25;;;1.20;;
51981;SDS011;37998;53.416;6.730;2022-12-07T11:12:52;3.95;;;1.52;;
51981;SDS011;37998;53.416;6.730;2022-12-07T11:29:20;4.97;;;1.48;;
51981;SDS011;37998;53.416;6.730;2022-12-07T11:32:04;9.57;;;1.63;;
51981;SDS011;37998;53.416;6.730;2022-12-07T11:34:57;5.30;;;1.40;;
51981;SDS011;37998;53.416;6.730;2022-12-07T11:37:31;4.80;;;1.60;;
51981;SDS011;37998;53.416;6.730;2022-12-07T11:40:00;3.83;;;2.03;;
51981;SDS011;37998;53.416;6.730;2022-12-07T11:45:28;8.73;;;1.60;;
51981;SDS011;37998;53.416;6.730;2022-12-07T11:48:01;4.43;;;1.73;;
51981;SDS011;37998;53.416;6.730;2022-12-07T11:50:38;6.78;;;1.30;;
51981;SDS011;37998;53.416;6.730;2022-12-07T11:56:15;2.78;;;1.15;;
51981;SDS011;37998;53.416;6.730;2022-12-07T11:58:46;4.53;;;1.25;;
51981;SDS011;37998;53.416;6.730;2022-12-07T12:06:39;5.03;;;1.33;;
51981;SDS011;37998;53.416;6.730;2022-12-07T12:09:11;5.30;;;1.88;;
51981;SDS011;37998;53.416;6.730;2022-12-07T12:11:54;10.93;;;1.42;;
51981;SDS011;37998;53.416;6.730;2022-12-07T12:14:32;7.43;;;1.80;;
51981;SDS011;37998;53.416;6.730;2022-12-07T12:22:54;7.38;;;2.05;;
51981;SDS011;37998;53.416;6.730;2022-12-07T12:25:29;7.90;;;1.88;;
51981;SDS011;37998;53.416;6.730;2022-12-07T12:28:01;7.80;;;2.10;;
51981;SDS011;37998;53.416;6.730;2022-12-07T12:33:20;3.38;;;1.50;;
51981;SDS011;37998;53.416;6.730;2022-12-07T12:41:53;12.43;;;2.58;;
51981;SDS011;37998;53.416;6.730;2022-12-07T12:47:04;14.70;;;2.40;;
51981;SDS011;37998;53.416;6.730;2022-12-07T12:50:11;11.90;;;1.85;;
51981;SDS011;37998;53.416;6.730;2022-12-07T12:57:33;13.35;;;1.95;;
51981;SDS011;37998;53.416;6.730;2022-12-07T13:00:01;5.13;;;1.48;;
51981;SDS011;37998;53.416;6.730;2022-12-07T13:02:50;9.13;;;1.80;;
51981;SDS011;37998;53.416;6.730;2022-12-07T13:05:22;6.80;;;1.80;;
51981;SDS011;37998;53.416;6.730;2022-12-07T13:08:02;9.95;;;1.70;;
51981;SDS011;37998;53.416;6.730;2022-12-07T13:10:38;7.65;;;1.35;;
51981;SDS011;37998;53.416;6.730;2022-12-07T13:15:53;7.97;;;2.03;;
51981;SDS011;37998;53.416;6.730;2022-12-07T13:26:21;4.63;;;1.30;;
51981;SDS011;37998;53.416;6.730;2022-12-07T13:36:56;9.13;;;2.13;;
51981;SDS011;37998;53.416;6.730;2022-12-07T13:39:24;5.70;;;1.42;;
51981;SDS011;37998;53.416;6.730;2022-12-07T13:41:52;7.00;;;2.10;;
51981;SDS011;37998;53.416;6.730;2022-12-07T13:44:23;7.28;;;1.90;;
51981;SDS011;37998;53.416;6.730;2022-12-07T13:47:06;5.70;;;1.30;;
51981;SDS011;37998;53.416;6.730;2022-12-07T13:49:56;5.50;;;1.40;;
51981;SDS011;37998;53.416;6.730;2022-12-07T13:52:26;7.28;;;2.13;;
51981;SDS011;37998;53.416;6.730;2022-12-07T13:57:27;6.07;;;1.60;;
51981;SDS011;37998;53.416;6.730;2022-12-07T13:59:55;9.27;;;2.10;;
51981;SDS011;37998;53.416;6.730;2022-12-07T14:02:31;5.85;;;1.50;;
51981;SDS011;37998;53.416;6.730;2022-12-07T14:05:09;5.10;;;1.30;;
51981;SDS011;37998;53.416;6.730;2022-12-07T14:07:55;7.00;;;1.38;;
51981;SDS011;37998;53.416;6.730;2022-12-07T14:10:30;2.97;;;1.30;;
51981;SDS011;37998;53.416;6.730;2022-12-07T14:13:01;8.00;;;3.10;;
51981;SDS011;37998;53.416;6.730;2022-12-07T14:15:32;10.25;;;1.85;;
51981;SDS011;37998;53.416;6.730;2022-12-07T14:18:00;10.73;;;2.95;;
51981;SDS011;37998;53.416;6.730;2022-12-07T14:20:38;6.20;;;3.38;;
51981;SDS011;37998;53.416;6.730;2022-12-07T14:23:06;5.65;;;2.75;;
51981;SDS011;37998;53.416;6.730;2022-12-07T14:25:50;7.07;;;2.78;;
51981;SDS011;37998;53.416;6.730;2022-12-07T14:28:34;6.18;;;2.55;;
51981;SDS011;37998;53.416;6.730;2022-12-07T14:31:01;6.45;;;2.15;;
51981;SDS011;37998;53.416;6.730;2022-12-07T14:33:28;9.48;;;2.60;;
51981;SDS011;37998;53.416;6.730;2022-12-07T14:35:54;10.07;;;2.80;;
51981;SDS011;37998;53.416;6.730;2022-12-07T14:38:22;10.48;;;2.78;;
51981;SDS011;37998;53.416;6.730;2022-12-07T14:40:52;7.32;;;2.55;;
51981;SDS011;37998;53.416;6.730;2022-12-07T14:43:18;5.28;;;1.90;;
51981;SDS011;37998;53.416;6.730;2022-12-07T14:45:45;9.00;;;2.08;;
51981;SDS011;37998;53.416;6.730;2022-12-07T14:48:12;10.75;;;1.83;;
51981;SDS011;37998;53.416;6.730;2022-12-07T14:50:45;8.65;;;1.80;;
51981;SDS011;37998;53.416;6.730;2022-12-07T14:53:16;7.90;;;1.75;;
51981;SDS011;37998;53.416;6.730;2022-12-07T14:55:43;6.00;;;1.27;;
51981;SDS011;37998;53.416;6.730;2022-12-07T14:58:16;9.55;;;1.88;;
51981;SDS011;37998;53.416;6.730;2022-12-07T15:00:43;5.80;;;1.50;;
51981;SDS011;37998;53.416;6.730;2022-12-07T15:03:09;4.22;;;1.48;;
51981;SDS011;37998;53.416;6.730;2022-12-07T15:05:35;5.07;;;2.20;;
51981;SDS011;37998;53.416;6.730;2022-12-07T15:08:02;8.68;;;3.08;;
51981;SDS011;37998;53.416;6.730;2022-12-07T15:10:29;5.97;;;1.77;;
51981;SDS011;37998;53.416;6.730;2022-12-07T15:13:00;4.18;;;1.70;;
51981;SDS011;37998;53.416;6.730;2022-12-07T15:15:49;6.30;;;2.90;;
51981;SDS011;37998;53.416;6.730;2022-12-07T15:18:17;4.20;;;1.95;;
51981;SDS011;37998;53.416;6.730;2022-12-07T15:20:43;6.30;;;2.00;;
51981;SDS011;37998;53.416;6.730;2022-12-07T15:23:09;2.38;;;1.40;;
51981;SDS011;37998;53.416;6.730;2022-12-07T15:25:36;1.33;;;1.23;;
51981;SDS011;37998;53.416;6.730;2022-12-07T15:28:02;2.80;;;1.17;;
51981;SDS011;37998;53.416;6.730;2022-12-07T15:30:28;2.75;;;1.30;;
51981;SDS011;37998;53.416;6.730;2022-12-07T15:32:53;3.15;;;1.30;;
51981;SDS011;37998;53.416;6.730;2022-12-07T15:35:19;4.85;;;1.63;;
51981;SDS011;37998;53.416;6.730;2022-12-07T15:37:45;4.25;;;1.30;;
51981;SDS011;37998;53.416;6.730;2022-12-07T15:40:12;3.15;;;1.15;;
51981;SDS011;37998;53.416;6.730;2022-12-07T15:42:39;3.42;;;1.27;;
51981;SDS011;37998;53.416;6.730;2022-12-07T15:45:05;6.15;;;1.60;;
51981;SDS011;37998;53.416;6.730;2022-12-07T15:47:36;4.05;;;1.88;;
51981;SDS011;37998;53.416;6.730;2022-12-07T15:50:07;4.35;;;1.40;;
51981;SDS011;37998;53.416;6.730;2022-12-07T15:52:35;6.63;;;1.50;;
51981;SDS011;37998;53.416;6.730;2022-12-07T15:55:01;4.20;;;1.65;;
51981;SDS011;37998;53.416;6.730;2022-12-07T15:57:28;11.75;;;1.73;;
51981;SDS011;37998;53.416;6.730;2022-12-07T15:59:55;8.55;;;1.90;;
51981;SDS011;37998;53.416;6.730;2022-12-07T16:02:20;8.55;;;1.90;;
51981;SDS011;37998;53.416;6.730;2022-12-07T16:04:47;8.70;;;2.10;;
51981;SDS011;37998;53.416;6.730;2022-12-07T16:07:13;3.88;;;1.92;;
51981;SDS011;37998;53.416;6.730;2022-12-07T16:09:40;5.95;;;1.95;;
51981;SDS011;37998;53.416;6.730;2022-12-07T16:12:07;6.13;;;2.20;;
51981;SDS011;37998;53.416;6.730;2022-12-07T16:14:32;4.60;;;1.92;;
51981;SDS011;37998;53.416;6.730;2022-12-07T16:16:58;5.57;;;1.98;;
51981;SDS011;37998;53.416;6.730;2022-12-07T16:19:24;6.80;;;1.48;;
51981;SDS011;37998;53.416;6.730;2022-12-07T16:21:50;6.10;;;1.77;;
51981;SDS011;37998;53.416;6.730;2022-12-07T16:24:16;4.22;;;2.13;;
51981;SDS011;37998;53.416;6.730;2022-12-07T16:26:42;7.78;;;3.00;;
51981;SDS011;37998;53.416;6.730;2022-12-07T16:29:10;7.18;;;2.50;;
51981;SDS011;37998;53.416;6.730;2022-12-07T16:31:37;4.65;;;2.65;;
51981;SDS011;37998;53.416;6.730;2022-12-07T16:34:02;8.30;;;3.17;;
51981;SDS011;37998;53.416;6.730;2022-12-07T16:36:28;13.07;;;3.45;;
51981;SDS011;37998;53.416;6.730;2022-12-07T16:38:54;15.73;;;6.65;;
51981;SDS011;37998;53.416;6.730;2022-12-07T16:41:20;7.30;;;3.67;;
51981;SDS011;37998;53.416;6.730;2022-12-07T16:43:45;6.25;;;2.40;;
51981;SDS011;37998;53.416;6.730;2022-12-07T16:46:12;5.78;;;2.25;;
51981;SDS011;37998;53.416;6.730;2022-12-07T16:48:38;8.57;;;2.45;;
51981;SDS011;37998;53.416;6.730;2022-12-07T16:51:05;9.88;;;1.85;;
51981;SDS011;37998;53.416;6.730;2022-12-07T16:53:33;4.45;;;1.83;;
51981;SDS011;37998;53.416;6.730;2022-12-07T16:56:00;7.68;;;1.73;;
51981;SDS011;37998;53.416;6.730;2022-12-07T16:58:26;10.32;;;3.40;;
51981;SDS011;37998;53.416;6.730;2022-12-07T17:00:53;7.45;;;3.25;;
51981;SDS011;37998;53.416;6.730;2022-12-07T17:03:18;9.75;;;3.63;;
51981;SDS011;37998;53.416;6.730;2022-12-07T17:05:44;7.82;;;3.60;;
51981;SDS011;37998;53.416;6.730;2022-12-07T17:08:11;10.05;;;2.85;;
51981;SDS011;37998;53.416;6.730;2022-12-07T17:10:39;7.13;;;2.53;;
51981;SDS011;37998;53.416;6.730;2022-12-07T17:13:08;7.80;;;3.35;;